Time;durP1;ratioP1;P1;durP2;ratioP2;P2;SDS_P1;SDS_P2;PMS_P1;PMS_P2;Temp;Humidity;BMP_temperature;BMP_pressure;BME280_temperature;BME280_humidity;BME280_pressure;Samples;Min_cycle;Max_cycle;Signal;HPM_P1;HPM_P2
2023/03/19 00:00:28;;;;;;;20.10;8.95;;;;;;;;;;10481541;28;20473;-77
2023/03/19 00:05:52;;;;;;;22.08;8.70;;;;;;;;;;10481985;28;20028;-77
2023/03/19 00:11:13;;;;;;;14.05;7.10;;;;;;;;;;10485260;28;20542;-77
2023/03/19 00:16:35;;;;;;;22.90;9.05;;;;;;;;;;10479264;28;20043;-77
2023/03/19 00:21:57;;;;;;;20.35;8.55;;;;;;;;;;10496966;27;20032;-78
2023/03/19 00:27:18;;;;;;;16.27;7.90;;;;;;;;;;10470632;28;20028;-78
2023/03/19 00:32:39;;;;;;;15.90;7.30;;;;;;;;;;10469370;28;20489;-78
2023/03/19 00:38:00;;;;;;;22.80;9.38;;;;;;;;;;10481736;28;20036;-78
2023/03/19 00:43:21;;;;;;;17.20;8.00;;;;;;;;;;10474776;28;20043;-78
2023/03/19 00:48:42;;;;;;;15.80;7.53;;;;;;;;;;10487506;28;20024;-78
2023/03/19 00:54:03;;;;;;;17.33;7.68;;;;;;;;;;10470111;28;20059;-78
2023/03/19 00:59:24;;;;;;;20.60;8.45;;;;;;;;;;10479406;28;20043;-78
2023/03/19 01:04:47;;;;;;;19.65;7.88;;;;;;;;;;10471694;28;20048;-79
2023/03/19 01:10:08;;;;;;;20.20;8.60;;;;;;;;;;10471684;28;20040;-78
2023/03/19 01:15:29;;;;;;;21.42;8.57;;;;;;;;;;10475398;28;20481;-79
2023/03/19 01:20:50;;;;;;;13.40;7.25;;;;;;;;;;10482951;28;20043;-79
2023/03/19 01:26:11;;;;;;;26.05;10.57;;;;;;;;;;10507281;28;20036;-79
2023/03/19 01:31:33;;;;;;;22.27;8.65;;;;;;;;;;10497259;28;20032;-78
2023/03/19 01:36:54;;;;;;;15.57;8.45;;;;;;;;;;10488370;28;20738;-78
2023/03/19 01:42:15;;;;;;;17.92;8.60;;;;;;;;;;10493814;28;20041;-78
2023/03/19 01:47:38;;;;;;;11.20;7.35;;;;;;;;;;10481112;28;20036;-78
2023/03/19 01:53:00;;;;;;;11.80;7.32;;;;;;;;;;10494274;28;20118;-78
2023/03/19 01:58:20;;;;;;;19.20;9.07;;;;;;;;;;10492105;28;20056;-79
2023/03/19 02:03:42;;;;;;;20.35;9.57;;;;;;;;;;10486085;28;20509;-78
2023/03/19 02:09:03;;;;;;;23.92;10.10;;;;;;;;;;10483035;28;20388;-79
2023/03/19 02:14:24;;;;;;;23.55;9.80;;;;;;;;;;10492415;27;20043;-78
2023/03/19 02:19:49;;;;;;;22.75;10.10;;;;;;;;;;10481659;28;20132;-79
2023/03/19 02:25:12;;;;;;;24.48;10.10;;;;;;;;;;10462567;28;20028;-78
2023/03/19 02:30:33;;;;;;;22.15;9.75;;;;;;;;;;10474499;28;20516;-78
2023/03/19 02:35:54;;;;;;;20.23;9.45;;;;;;;;;;10469306;28;20051;-79
2023/03/19 02:41:15;;;;;;;26.55;10.82;;;;;;;;;;10472257;28;20059;-79
2023/03/19 02:46:36;;;;;;;19.95;9.85;;;;;;;;;;10488116;28;20043;-79
2023/03/19 02:51:57;;;;;;;20.85;10.20;;;;;;;;;;10502546;28;20032;-79
2023/03/19 02:57:18;;;;;;;28.05;11.45;;;;;;;;;;10485188;28;20059;-79
2023/03/19 03:02:39;;;;;;;27.58;11.85;;;;;;;;;;10494903;27;20032;-84
2023/03/19 03:08:01;;;;;;;24.90;10.75;;;;;;;;;;10499027;28;20039;-83
2023/03/19 03:13:22;;;;;;;18.10;9.77;;;;;;;;;;10466717;28;20063;-85
2023/03/19 03:18:43;;;;;;;23.92;10.25;;;;;;;;;;10470455;28;20039;-79
2023/03/19 03:24:04;;;;;;;22.45;10.38;;;;;;;;;;10479254;28;20029;-79
2023/03/19 03:29:25;;;;;;;26.30;11.60;;;;;;;;;;10466878;28;20048;-79
2023/03/19 03:34:46;;;;;;;23.70;11.60;;;;;;;;;;10472332;28;20063;-79
2023/03/19 03:40:08;;;;;;;24.02;11.77;;;;;;;;;;10473065;28;20040;-79
2023/03/19 03:45:29;;;;;;;27.05;12.23;;;;;;;;;;10461835;28;20500;-77
2023/03/19 03:50:50;;;;;;;27.67;11.77;;;;;;;;;;10459266;28;20078;-78
2023/03/19 03:56:11;;;;;;;29.38;12.90;;;;;;;;;;10476169;28;20052;-77
2023/03/19 04:01:32;;;;;;;29.02;12.85;;;;;;;;;;10473220;28;20074;-78
2023/03/19 04:06:53;;;;;;;29.90;13.60;;;;;;;;;;10487214;27;20029;-78
2023/03/19 04:12:14;;;;;;;30.17;13.13;;;;;;;;;;10484804;27;20032;-79
2023/03/19 04:17:35;;;;;;;24.40;11.70;;;;;;;;;;10484830;28;20866;-78
2023/03/19 04:22:56;;;;;;;26.15;11.88;;;;;;;;;;10497491;28;20043;-78
2023/03/19 04:28:17;;;;;;;28.05;12.05;;;;;;;;;;10473792;28;20474;-78
2023/03/19 04:33:38;;;;;;;26.90;11.35;;;;;;;;;;10493333;27;20048;-78
2023/03/19 04:39:00;;;;;;;26.30;12.38;;;;;;;;;;10496801;27;20044;-78
2023/03/19 04:44:20;;;;;;;35.90;14.15;;;;;;;;;;10493060;28;20039;-78
2023/03/19 04:49:41;;;;;;;24.35;11.25;;;;;;;;;;10498142;28;20024;-78
2023/03/19 04:55:03;;;;;;;33.85;14.27;;;;;;;;;;10454379;28;20055;-78
2023/03/19 05:00:24;;;;;;;34.15;14.27;;;;;;;;;;10455429;28;20035;-78
2023/03/19 05:05:45;;;;;;;29.08;13.88;;;;;;;;;;10462888;28;20047;-78
2023/03/19 05:11:06;;;;;;;25.55;13.10;;;;;;;;;;10475148;28;20044;-78
2023/03/19 05:16:27;;;;;;;27.20;13.45;;;;;;;;;;10471554;28;20039;-78
2023/03/19 05:21:48;;;;;;;34.13;14.18;;;;;;;;;;10482295;28;20044;-79
2023/03/19 05:27:09;;;;;;;24.58;13.32;;;;;;;;;;10489905;28;20035;-78
2023/03/19 05:32:31;;;;;;;30.88;13.35;;;;;;;;;;10455992;28;20408;-78
2023/03/19 05:37:52;;;;;;;36.38;15.23;;;;;;;;;;10488548;28;20412;-77
2023/03/19 05:43:13;;;;;;;34.05;14.00;;;;;;;;;;10497270;27;20401;-78
2023/03/19 05:48:34;;;;;;;34.22;14.45;;;;;;;;;;10471934;28;20039;-77
2023/03/19 05:53:55;;;;;;;34.30;14.48;;;;;;;;;;10492089;27;20059;-78
2023/03/19 05:59:17;;;;;;;28.90;12.70;;;;;;;;;;10510658;28;20040;-77
2023/03/19 06:04:38;;;;;;;31.33;13.77;;;;;;;;;;10485694;28;20968;-78
2023/03/19 06:09:59;;;;;;;28.30;13.77;;;;;;;;;;10493121;27;20024;-78
2023/03/19 06:15:20;;;;;;;30.67;14.32;;;;;;;;;;10493600;27;20055;-78
2023/03/19 06:20:41;;;;;;;31.50;14.27;;;;;;;;;;10466443;28;20052;-78
2023/03/19 06:26:02;;;;;;;36.65;15.57;;;;;;;;;;10465902;28;20024;-77
2023/03/19 06:31:23;;;;;;;28.73;13.93;;;;;;;;;;10468491;28;20495;-78
2023/03/19 06:36:44;;;;;;;29.80;14.02;;;;;;;;;;10498469;27;20039;-78
2023/03/19 06:42:06;;;;;;;30.17;14.50;;;;;;;;;;10495644;28;20497;-78
2023/03/19 06:47:27;;;;;;;35.40;15.80;;;;;;;;;;10488210;27;20036;-78
2023/03/19 06:52:47;;;;;;;28.52;14.85;;;;;;;;;;10462034;28;20094;-77
2023/03/19 06:58:08;;;;;;;35.00;15.93;;;;;;;;;;10470976;28;20036;-78
2023/03/19 07:03:30;;;;;;;31.67;15.13;;;;;;;;;;10497241;27;20189;-77
2023/03/19 07:08:51;;;;;;;33.30;15.95;;;;;;;;;;10481136;28;20077;-78
2023/03/19 07:14:12;;;;;;;38.35;16.65;;;;;;;;;;10492063;28;20035;-78
2023/03/19 07:19:32;;;;;;;37.45;17.75;;;;;;;;;;10463623;28;20043;-77
2023/03/19 07:24:54;;;;;;;51.28;21.42;;;;;;;;;;10468480;28;20401;-77
2023/03/19 07:30:15;;;;;;;38.55;18.67;;;;;;;;;;10484570;27;20032;-77
2023/03/19 07:35:36;;;;;;;36.15;16.05;;;;;;;;;;10484974;27;20040;-77
2023/03/19 07:40:57;;;;;;;27.98;14.25;;;;;;;;;;10463227;28;20044;-77
2023/03/19 07:46:17;;;;;;;28.88;14.00;;;;;;;;;;10477009;28;20035;-75
2023/03/19 07:51:39;;;;;;;29.92;12.27;;;;;;;;;;10481216;28;20051;-78
2023/03/19 07:57:00;;;;;;;29.80;12.38;;;;;;;;;;10481296;27;20052;-77
2023/03/19 08:02:21;;;;;;;27.48;10.70;;;;;;;;;;10472236;28;20036;-77
2023/03/19 08:07:42;;;;;;;32.22;12.13;;;;;;;;;;10481540;27;20028;-76
2023/03/19 08:13:04;;;;;;;35.03;12.43;;;;;;;;;;10482829;27;20028;-77
2023/03/19 08:18:25;;;;;;;30.85;11.85;;;;;;;;;;10471165;28;20062;-77
2023/03/19 08:23:46;;;;;;;35.78;12.90;;;;;;;;;;10469309;28;20021;-77
2023/03/19 08:29:07;;;;;;;28.02;11.30;;;;;;;;;;10448214;28;20025;-77
2023/03/19 08:34:28;;;;;;;26.52;10.80;;;;;;;;;;10445337;28;20757;-78
2023/03/19 08:39:50;;;;;;;24.23;11.48;;;;;;;;;;10481323;28;24036;-77
2023/03/19 08:45:12;;;;;;;33.20;11.68;;;;;;;;;;10445200;28;20444;-76
2023/03/19 08:50:33;;;;;;;35.22;11.45;;;;;;;;;;10456188;28;20032;-77
2023/03/19 08:55:55;;;;;;;32.45;11.27;;;;;;;;;;10428123;28;20082;-76
2023/03/19 09:01:16;;;;;;;32.00;11.60;;;;;;;;;;10412517;28;20418;-77
2023/03/19 09:06:37;;;;;;;29.63;11.13;;;;;;;;;;10412138;28;20021;-73
2023/03/19 09:11:58;;;;;;;17.92;8.68;;;;;;;;;;10417845;28;20048;-77
2023/03/19 09:17:19;;;;;;;31.23;10.77;;;;;;;;;;10422354;28;20523;-76
2023/03/19 09:22:40;;;;;;;24.60;10.02;;;;;;;;;;10418176;28;20020;-76
2023/03/19 09:28:01;;;;;;;28.92;10.70;;;;;;;;;;10433314;28;20421;-77
2023/03/19 09:33:22;;;;;;;31.60;12.43;;;;;;;;;;10439189;28;20032;-77
2023/03/19 09:38:43;;;;;;;26.55;9.85;;;;;;;;;;10416761;28;20501;-78
2023/03/19 09:44:42;;;;;;;30.80;11.23;;;;;;;;;;10427673;28;20029;-78
2023/03/19 09:50:09;;;;;;;24.67;11.77;;;;;;;;;;10352480;28;20040;-80
2023/03/19 09:55:42;;;;;;;31.20;13.00;;;;;;;;;;10439726;28;20060;-78
2023/03/19 10:01:03;;;;;;;27.60;12.07;;;;;;;;;;10429285;28;20024;-77
2023/03/19 10:06:30;;;;;;;31.23;12.23;;;;;;;;;;10438081;28;20033;-76
2023/03/19 10:12:10;;;;;;;34.85;14.80;;;;;;;;;;10443881;28;20024;-76
2023/03/19 10:17:33;;;;;;;24.45;10.35;;;;;;;;;;10444588;28;20047;-76
2023/03/19 10:22:59;;;;;;;21.02;9.82;;;;;;;;;;10431083;28;20033;-77
2023/03/19 10:28:20;;;;;;;24.35;9.52;;;;;;;;;;10442193;28;20113;-75
2023/03/19 10:33:43;;;;;;;27.05;9.13;;;;;;;;;;10451148;28;20068;-77
2023/03/19 10:39:06;;;;;;;23.95;9.10;;;;;;;;;;10449630;28;20043;-77
2023/03/19 10:44:29;;;;;;;30.35;13.65;;;;;;;;;;10432675;28;20044;-78
2023/03/19 10:49:50;;;;;;;61.72;20.75;;;;;;;;;;10447017;28;20032;-78
2023/03/19 10:55:11;;;;;;;28.65;11.55;;;;;;;;;;10452779;28;20079;-76
2023/03/19 11:00:34;;;;;;;34.47;12.52;;;;;;;;;;10487030;28;20044;-77
2023/03/19 11:06:13;;;;;;;36.00;12.82;;;;;;;;;;10472249;28;20036;-75
2023/03/19 11:11:48;;;;;;;30.98;11.75;;;;;;;;;;10479766;27;20040;-78
2023/03/19 11:17:28;;;;;;;42.28;14.30;;;;;;;;;;10471678;28;20036;-77
2023/03/19 11:22:50;;;;;;;34.78;12.88;;;;;;;;;;10472265;28;20052;-76
2023/03/19 11:28:13;;;;;;;25.27;8.82;;;;;;;;;;10482570;28;20458;-74
2023/03/19 11:33:37;;;;;;;22.70;9.25;;;;;;;;;;10487570;28;20049;-76
2023/03/19 11:39:13;;;;;;;24.58;10.85;;;;;;;;;;10481481;28;20041;-77
2023/03/19 11:44:39;;;;;;;23.08;10.95;;;;;;;;;;10471159;28;20040;-76
2023/03/19 11:50:24;;;;;;;27.08;11.13;;;;;;;;;;10489347;28;20036;-76
2023/03/19 11:55:48;;;;;;;27.20;11.63;;;;;;;;;;10487086;28;20048;-78
2023/03/19 12:01:21;;;;;;;24.58;9.85;;;;;;;;;;10481696;28;20517;-77
2023/03/19 12:06:48;;;;;;;23.58;9.73;;;;;;;;;;10483859;28;20024;-77
2023/03/19 12:12:18;;;;;;;26.48;11.32;;;;;;;;;;10498343;27;20040;-78
2023/03/19 12:17:44;;;;;;;26.00;10.95;;;;;;;;;;10470262;28;20047;-77
2023/03/19 12:23:20;;;;;;;27.00;11.52;;;;;;;;;;10487191;28;20040;-77
2023/03/19 12:28:47;;;;;;;24.58;11.75;;;;;;;;;;10488621;28;20039;-77
2023/03/19 12:34:08;;;;;;;30.48;12.93;;;;;;;;;;10497311;28;20037;-77
2023/03/19 12:39:32;;;;;;;32.38;14.35;;;;;;;;;;10472334;28;20039;-77
2023/03/19 12:44:55;;;;;;;28.60;13.60;;;;;;;;;;10497746;27;20036;-77
2023/03/19 12:50:17;;;;;;;32.67;14.93;;;;;;;;;;10492955;28;20035;-77
2023/03/19 12:55:40;;;;;;;26.52;14.10;;;;;;;;;;10440079;28;20080;-77
2023/03/19 13:01:07;;;;;;;33.85;14.25;;;;;;;;;;10432227;28;20036;-77
2023/03/19 13:06:37;;;;;;;23.23;12.30;;;;;;;;;;10432448;28;20514;-77
2023/03/19 13:12:06;;;;;;;33.03;15.45;;;;;;;;;;10443854;28;20490;-77
2023/03/19 13:17:33;;;;;;;30.67;15.27;;;;;;;;;;10458030;28;20040;-77
2023/03/19 13:22:55;;;;;;;29.30;14.55;;;;;;;;;;10456347;28;20036;-77
2023/03/19 13:28:23;;;;;;;31.23;16.08;;;;;;;;;;10431264;28;20029;-78
2023/03/19 13:33:52;;;;;;;30.92;15.82;;;;;;;;;;10452811;28;21664;-77
2023/03/19 13:39:17;;;;;;;25.83;14.35;;;;;;;;;;10456618;28;20036;-76
2023/03/19 13:44:38;;;;;;;31.02;15.18;;;;;;;;;;10441834;28;20048;-77
2023/03/19 13:50:14;;;;;;;35.15;16.25;;;;;;;;;;10441794;28;20044;-74
2023/03/19 13:55:56;;;;;;;32.92;15.50;;;;;;;;;;10454794;28;20067;-74
2023/03/19 14:01:38;;;;;;;34.58;15.40;;;;;;;;;;10494773;28;20032;-74
2023/03/19 14:07:14;;;;;;;37.33;15.70;;;;;;;;;;10477475;28;20030;-75
2023/03/19 14:12:36;;;;;;;31.38;14.13;;;;;;;;;;10483019;28;20035;-74
2023/03/19 14:18:02;;;;;;;31.27;14.23;;;;;;;;;;10504473;27;20089;-74
2023/03/19 14:23:24;;;;;;;25.25;12.90;;;;;;;;;;10477121;28;20032;-76
2023/03/19 14:28:45;;;;;;;23.42;11.93;;;;;;;;;;10503406;27;20388;-75
2023/03/19 14:34:13;;;;;;;27.08;12.50;;;;;;;;;;10505472;28;20028;-76
2023/03/19 14:39:39;;;;;;;23.60;11.43;;;;;;;;;;10477127;28;20036;-76
2023/03/19 14:45:17;;;;;;;26.98;12.50;;;;;;;;;;10492216;28;20050;-75
2023/03/19 14:50:38;;;;;;;24.50;11.95;;;;;;;;;;10503988;27;20043;-75
2023/03/19 14:56:04;;;;;;;26.23;13.05;;;;;;;;;;10488731;28;20059;-75
2023/03/19 15:01:26;;;;;;;28.55;13.35;;;;;;;;;;10487945;28;20028;-75
2023/03/19 15:06:54;;;;;;;33.45;14.98;;;;;;;;;;10485359;28;20055;-75
2023/03/19 15:12:32;;;;;;;29.90;13.98;;;;;;;;;;10501474;28;20501;-75
2023/03/19 15:18:12;;;;;;;34.47;14.43;;;;;;;;;;10503947;27;20047;-75
2023/03/19 15:23:34;;;;;;;30.15;14.07;;;;;;;;;;10499490;27;20036;-75
2023/03/19 15:28:56;;;;;;;38.70;15.10;;;;;;;;;;10459152;28;20032;-75
2023/03/19 15:34:18;;;;;;;34.30;15.20;;;;;;;;;;10472484;28;20098;-75
2023/03/19 15:39:43;;;;;;;33.08;13.20;;;;;;;;;;10497055;27;20037;-75
2023/03/19 15:45:09;;;;;;;31.95;14.77;;;;;;;;;;10472106;28;20042;-75
2023/03/19 15:50:32;;;;;;;31.05;14.27;;;;;;;;;;10496897;27;20039;-75
2023/03/19 15:55:53;;;;;;;35.28;14.30;;;;;;;;;;10493411;28;20048;-75
2023/03/19 16:01:15;;;;;;;32.22;14.00;;;;;;;;;;10499280;27;20047;-77
2023/03/19 16:06:38;;;;;;;31.65;14.43;;;;;;;;;;10469424;28;20046;-78
2023/03/19 16:11:59;;;;;;;32.88;14.63;;;;;;;;;;10461685;28;20678;-78
2023/03/19 16:17:20;;;;;;;38.30;14.55;;;;;;;;;;10482531;28;20782;-78
2023/03/19 16:22:44;;;;;;;34.13;14.18;;;;;;;;;;10481344;28;20039;-78
2023/03/19 16:28:13;;;;;;;36.63;15.13;;;;;;;;;;10479452;28;20480;-78
2023/03/19 16:33:34;;;;;;;32.10;13.60;;;;;;;;;;10497415;28;20039;-80
2023/03/19 16:38:56;;;;;;;29.60;13.38;;;;;;;;;;10495154;28;20040;-77
2023/03/19 16:44:18;;;;;;;32.05;14.10;;;;;;;;;;10494870;28;20098;-78
2023/03/19 16:49:39;;;;;;;33.13;14.52;;;;;;;;;;10474484;28;20046;-78
2023/03/19 16:55:00;;;;;;;31.52;14.02;;;;;;;;;;10456717;27;20399;-78
2023/03/19 17:00:21;;;;;;;33.47;15.38;;;;;;;;;;10418563;28;20043;-78
2023/03/19 17:05:43;;;;;;;31.63;14.93;;;;;;;;;;10430626;28;20718;-78
2023/03/19 17:11:04;;;;;;;37.05;14.73;;;;;;;;;;10427804;28;20029;-78
2023/03/19 17:16:26;;;;;;;36.90;15.60;;;;;;;;;;10436445;28;20063;-78
2023/03/19 17:21:52;;;;;;;30.55;14.25;;;;;;;;;;10423116;28;20583;-78
2023/03/19 17:27:14;;;;;;;32.63;14.48;;;;;;;;;;10422958;28;20111;-78
2023/03/19 17:32:35;;;;;;;30.88;14.30;;;;;;;;;;10427689;28;20406;-78
2023/03/19 17:37:56;;;;;;;21.02;11.75;;;;;;;;;;10469995;28;20425;-78
2023/03/19 17:43:17;;;;;;;28.13;12.38;;;;;;;;;;10499517;28;20523;-77
2023/03/19 17:48:37;;;;;;;29.17;12.73;;;;;;;;;;10529990;27;20028;-78
2023/03/19 17:53:59;;;;;;;25.75;11.90;;;;;;;;;;10531569;27;20051;-78
2023/03/19 17:59:20;;;;;;;24.02;12.15;;;;;;;;;;10500094;28;20507;-79
2023/03/19 18:04:41;;;;;;;25.55;12.10;;;;;;;;;;10497218;28;20758;-76
2023/03/19 18:10:02;;;;;;;27.25;12.05;;;;;;;;;;10497147;28;20052;-76
2023/03/19 18:15:23;;;;;;;21.40;10.98;;;;;;;;;;10500434;28;20527;-76
2023/03/19 18:20:45;;;;;;;31.95;13.55;;;;;;;;;;10445397;28;20056;-76
2023/03/19 18:26:05;;;;;;;30.73;13.05;;;;;;;;;;10432421;28;20076;-74
2023/03/19 18:31:29;;;;;;;33.13;12.65;;;;;;;;;;10429977;28;20489;-75
2023/03/19 18:36:50;;;;;;;30.45;13.05;;;;;;;;;;10431399;28;20114;-75
2023/03/19 18:42:11;;;;;;;27.55;11.85;;;;;;;;;;10455773;27;20040;-74
2023/03/19 18:47:32;;;;;;;26.02;10.98;;;;;;;;;;10430665;28;20736;-74
2023/03/19 18:52:53;;;;;;;32.17;13.88;;;;;;;;;;10433899;28;20048;-75
2023/03/19 18:58:22;;;;;;;29.80;12.43;;;;;;;;;;10466836;28;20048;-75
2023/03/19 19:03:44;;;;;;;28.88;12.40;;;;;;;;;;10473915;28;20048;-75
2023/03/19 19:09:05;;;;;;;31.40;13.35;;;;;;;;;;10469783;28;20531;-75
2023/03/19 19:14:26;;;;;;;36.53;13.73;;;;;;;;;;10453788;28;20330;-74
2023/03/19 19:19:47;;;;;;;29.85;12.38;;;;;;;;;;10466063;28;21350;-75
2023/03/19 19:25:13;;;;;;;37.67;14.43;;;;;;;;;;10460818;28;20047;-75
2023/03/19 19:30:34;;;;;;;42.80;14.60;;;;;;;;;;10449939;28;20060;-74
2023/03/19 19:35:56;;;;;;;41.75;15.80;;;;;;;;;;10462742;28;20048;-75
2023/03/19 19:41:19;;;;;;;40.97;15.27;;;;;;;;;;10468938;28;21220;-75
2023/03/19 19:46:40;;;;;;;43.13;15.82;;;;;;;;;;10458645;28;20473;-75
2023/03/19 19:52:01;;;;;;;45.08;16.65;;;;;;;;;;10465362;28;20397;-75
2023/03/19 19:57:23;;;;;;;80.13;24.95;;;;;;;;;;10464271;28;20492;-76
2023/03/19 20:02:44;;;;;;;37.05;15.55;;;;;;;;;;10463773;28;20036;-75
2023/03/19 20:08:05;;;;;;;32.38;14.40;;;;;;;;;;10471205;28;20122;-75
2023/03/19 20:13:34;;;;;;;38.40;15.80;;;;;;;;;;10487750;28;20472;-72
2023/03/19 20:18:55;;;;;;;29.73;13.93;;;;;;;;;;10478483;28;20036;-73
2023/03/19 20:24:17;;;;;;;36.40;15.23;;;;;;;;;;10481518;28;20411;-73
2023/03/19 20:29:38;;;;;;;44.00;17.98;;;;;;;;;;10482839;28;20032;-73
2023/03/19 20:34:59;;;;;;;36.85;16.83;;;;;;;;;;10490376;27;20043;-73
2023/03/19 20:40:21;;;;;;;36.85;15.68;;;;;;;;;;10481470;28;20036;-72
2023/03/19 20:45:42;;;;;;;39.78;15.80;;;;;;;;;;10495967;28;20040;-73
2023/03/19 20:51:03;;;;;;;39.28;16.80;;;;;;;;;;10479546;28;20458;-73
2023/03/19 20:56:24;;;;;;;34.00;14.68;;;;;;;;;;10481173;28;20059;-72
2023/03/19 21:01:45;;;;;;;34.60;15.02;;;;;;;;;;10480435;28;20039;-73
2023/03/19 21:07:27;;;;;;;44.35;18.60;;;;;;;;;;10452707;28;20039;-73
2023/03/19 21:12:48;;;;;;;43.40;17.80;;;;;;;;;;10471801;28;20029;-73
2023/03/19 21:18:10;;;;;;;39.63;16.58;;;;;;;;;;10469310;28;20032;-73
2023/03/19 21:23:36;;;;;;;37.78;15.15;;;;;;;;;;10478297;28;20040;-73
2023/03/19 21:29:02;;;;;;;39.25;14.70;;;;;;;;;;10474817;28;20067;-72
2023/03/19 21:34:24;;;;;;;35.13;14.55;;;;;;;;;;10446489;28;20036;-75
2023/03/19 21:39:45;;;;;;;33.30;14.30;;;;;;;;;;10465459;28;20047;-73
2023/03/19 21:45:12;;;;;;;29.42;14.43;;;;;;;;;;10457705;28;21362;-73
2023/03/19 21:50:34;;;;;;;39.15;15.68;;;;;;;;;;10466267;28;20039;-73
2023/03/19 21:55:57;;;;;;;31.25;13.80;;;;;;;;;;10450040;28;21036;-73
2023/03/19 22:01:22;;;;;;;38.28;16.00;;;;;;;;;;10457412;28;20032;-73
2023/03/19 22:06:43;;;;;;;33.65;16.00;;;;;;;;;;10471098;28;20048;-74
2023/03/19 22:12:04;;;;;;;33.95;15.90;;;;;;;;;;10474725;28;20040;-74
2023/03/19 22:17:26;;;;;;;37.97;15.73;;;;;;;;;;10482571;28;20078;-73
2023/03/19 22:22:47;;;;;;;41.92;17.80;;;;;;;;;;10482829;28;20036;-73
2023/03/19 22:28:12;;;;;;;39.88;17.00;;;;;;;;;;10487607;28;20024;-74
2023/03/19 22:33:33;;;;;;;34.67;15.57;;;;;;;;;;10472804;28;20425;-73
2023/03/19 22:38:54;;;;;;;44.75;17.52;;;;;;;;;;10485268;28;20066;-75
2023/03/19 22:44:15;;;;;;;45.45;17.92;;;;;;;;;;10454618;28;20032;-72
2023/03/19 22:49:36;;;;;;;43.28;17.92;;;;;;;;;;10466236;28;20146;-74
2023/03/19 22:54:57;;;;;;;50.17;21.35;;;;;;;;;;10463166;28;21785;-74
2023/03/19 23:00:19;;;;;;;41.67;18.00;;;;;;;;;;10481698;28;20033;-73
2023/03/19 23:05:42;;;;;;;44.15;17.10;;;;;;;;;;10455283;28;20538;-73
2023/03/19 23:11:03;;;;;;;34.78;15.23;;;;;;;;;;10478932;28;20032;-73
2023/03/19 23:16:24;;;;;;;38.50;15.85;;;;;;;;;;10467966;28;20058;-73
2023/03/19 23:21:45;;;;;;;41.10;15.95;;;;;;;;;;10470269;28;20633;-73
2023/03/19 23:27:16;;;;;;;41.17;16.20;;;;;;;;;;10458724;28;20413;-72
2023/03/19 23:32:38;;;;;;;28.27;12.60;;;;;;;;;;10464869;28;20032;-73
2023/03/19 23:38:00;;;;;;;35.75;14.95;;;;;;;;;;10452286;28;20070;-73
2023/03/19 23:43:22;;;;;;;41.17;16.45;;;;;;;;;;10483214;27;20044;-74
2023/03/19 23:48:43;;;;;;;38.30;15.02;;;;;;;;;;10468654;28;20040;-73
2023/03/19 23:54:14;;;;;;;37.65;14.60;;;;;;;;;;10441433;28;20064;-73
2023/03/19 23:59:36;;;;;;;41.72;15.88;;;;;;;;;;10407627;28;20048;-73
